createdAt,value
2017-12-12T00:00:25.380Z,6.99
2017-12-12T00:01:25.388Z,7.02
2017-12-12T00:02:25.428Z,6.98
2017-12-12T00:03:25.429Z,6.99
2017-12-12T00:04:25.446Z,6.95
2017-12-12T00:05:25.459Z,6.98
2017-12-12T00:06:25.463Z,6.94
2017-12-12T00:07:25.497Z,6.98
2017-12-12T00:08:25.513Z,6.92
2017-12-12T00:09:25.272Z,6.97
2017-12-12T00:10:25.527Z,6.91
2017-12-12T00:11:25.545Z,6.92
2017-12-12T00:13:25.324Z,6.91
2017-12-12T00:14:25.682Z,6.98
2017-12-12T00:15:40.319Z,6.94
2017-12-12T00:16:25.374Z,6.91
2017-12-12T00:17:25.412Z,6.95
2017-12-12T00:18:25.665Z,6.92
2017-12-12T00:19:25.676Z,6.91
2017-12-12T00:20:25.732Z,6.91
2017-12-12T00:21:25.748Z,6.88
2017-12-12T00:22:25.766Z,6.89
2017-12-12T00:23:25.784Z,6.92
2017-12-12T00:24:25.811Z,6.88
2017-12-12T00:25:25.794Z,6.89
2017-12-12T00:26:25.849Z,6.91
2017-12-12T00:27:40.252Z,6.84
2017-12-12T00:28:25.854Z,6.85
2017-12-12T00:30:40.596Z,6.91
2017-12-12T00:31:25.884Z,6.95
2017-12-12T00:32:25.921Z,6.97
2017-12-12T00:33:25.929Z,6.89
2017-12-12T00:34:25.955Z,6.95
2017-12-12T00:35:25.962Z,6.95
2017-12-12T00:36:26.011Z,6.91
2017-12-12T00:37:26.013Z,6.91
2017-12-12T00:38:26.041Z,6.85
2017-12-12T00:39:26.057Z,6.92
2017-12-12T00:40:26.056Z,6.99
2017-12-12T00:41:26.083Z,6.92
2017-12-12T00:42:26.096Z,6.89
2017-12-12T00:43:26.095Z,6.95
2017-12-12T00:44:26.153Z,6.89
2017-12-12T00:45:26.164Z,6.92
2017-12-12T00:46:26.151Z,6.95
2017-12-12T00:47:26.211Z,6.91
2017-12-12T00:48:26.217Z,6.97
2017-12-12T00:49:26.228Z,6.98
2017-12-12T00:50:26.227Z,6.92
2017-12-12T00:51:26.238Z,6.92
2017-12-12T00:52:26.246Z,6.95
2017-12-12T00:54:26.301Z,6.92
2017-12-12T00:56:26.334Z,6.98
2017-12-12T00:57:41.002Z,6.98
2017-12-12T00:58:26.357Z,6.99
2017-12-12T00:59:26.361Z,6.97
2017-12-12T01:01:26.420Z,6.94
2017-12-12T01:02:41.089Z,6.92
2017-12-12T01:03:26.462Z,6.94
2017-12-12T01:04:26.494Z,6.92
2017-12-12T01:05:26.471Z,6.92
2017-12-12T01:06:26.498Z,6.95
2017-12-12T01:07:26.535Z,6.95
2017-12-12T01:08:26.531Z,6.97
2017-12-12T01:09:26.552Z,6.99
2017-12-12T01:10:26.544Z,7.06
2017-12-12T01:11:26.585Z,6.98
2017-12-12T01:12:26.596Z,6.92
2017-12-12T01:13:26.351Z,6.95
2017-12-12T01:14:41.050Z,7.06
2017-12-12T01:15:26.631Z,7.03
2017-12-12T01:16:26.412Z,6.98
2017-12-12T01:17:26.697Z,7.07
2017-12-12T01:18:41.389Z,6.95
2017-12-12T01:19:26.738Z,6.98
2017-12-12T01:20:26.732Z,6.97
2017-12-12T01:21:26.774Z,6.98
2017-12-12T01:22:26.873Z,6.95
2017-12-12T01:23:41.451Z,7.09
2017-12-12T01:24:26.812Z,7.07
2017-12-12T01:25:26.830Z,6.98
2017-12-12T01:26:26.596Z,7.07
2017-12-12T01:27:41.538Z,7.06
2017-12-12T01:29:41.547Z,7.02
2017-12-12T01:30:26.910Z,7.09
2017-12-12T01:31:26.929Z,7.09
2017-12-12T01:32:26.951Z,7.07
2017-12-12T01:33:26.936Z,7.1
2017-12-12T01:34:41.379Z,7.1
2017-12-12T01:36:27.001Z,7.15
2017-12-12T01:37:26.758Z,7.13
2017-12-12T01:38:27.062Z,7.12
2017-12-12T01:39:27.068Z,7.12
2017-12-12T01:41:27.116Z,7.1
2017-12-12T01:42:41.776Z,7.09
2017-12-12T01:43:27.135Z,7.12
2017-12-12T01:44:27.141Z,7.17
2017-12-12T01:45:27.195Z,7.13
2017-12-12T01:46:27.199Z,7.17
2017-12-12T01:47:27.204Z,7.13
2017-12-12T01:48:27.217Z,7.09
2017-12-12T01:49:27.233Z,7.16
2017-12-12T01:50:41.932Z,7.1
2017-12-12T01:51:27.248Z,7.12
2017-12-12T01:52:27.305Z,7.09
2017-12-12T01:53:27.041Z,7.06
2017-12-12T01:55:27.340Z,7.1
2017-12-12T01:56:27.336Z,7.07
2017-12-12T01:57:27.119Z,6.97
2017-12-12T01:58:27.392Z,7.1
2017-12-12T01:59:27.389Z,7.1
2017-12-12T02:00:27.163Z,7.15
2017-12-12T02:01:27.413Z,7.15
2017-12-12T02:02:27.453Z,7.15
2017-12-12T02:04:27.484Z,7.17
2017-12-12T02:05:42.178Z,7.1
2017-12-12T02:07:27.519Z,7.06
2017-12-12T02:08:27.587Z,7.21
2017-12-12T02:09:27.322Z,7.15
2017-12-12T02:10:27.598Z,7.17
2017-12-12T02:11:27.609Z,7.12
2017-12-12T02:12:27.622Z,7.15
2017-12-12T02:13:27.627Z,7.17
2017-12-12T02:14:27.656Z,7.15
2017-12-12T02:15:42.351Z,7.13
2017-12-12T02:16:27.706Z,7.27
2017-12-12T02:17:27.732Z,7.16
2017-12-12T02:18:27.738Z,7.09
2017-12-12T02:19:27.755Z,7.13
2017-12-12T02:21:27.778Z,7.1
2017-12-12T02:22:27.806Z,7.21
2017-12-12T02:23:27.812Z,7.27
2017-12-12T02:24:27.898Z,7.21
2017-12-12T02:26:27.872Z,7.16
2017-12-12T02:28:42.573Z,7.25
2017-12-12T02:29:27.647Z,7.24
2017-12-12T02:30:27.944Z,7.24
2017-12-12T02:31:27.703Z,7.28
2017-12-12T02:32:27.984Z,7.25
2017-12-12T02:33:27.994Z,7.25
2017-12-12T02:34:27.769Z,7.28
2017-12-12T02:35:28.032Z,7.28
2017-12-12T02:36:28.066Z,7.27
2017-12-12T02:37:42.729Z,7.12
2017-12-12T02:38:28.055Z,7.12
2017-12-12T02:39:28.098Z,7.27
2017-12-12T02:40:42.782Z,7.2
2017-12-12T02:41:28.125Z,7.25
2017-12-12T02:42:28.162Z,7.21
2017-12-12T02:43:28.172Z,7.16
2017-12-12T02:44:28.176Z,7.25
2017-12-12T02:45:27.946Z,7.24
2017-12-12T02:46:28.241Z,7.27
2017-12-12T02:47:28.222Z,7.39
2017-12-12T02:48:28.018Z,7.35
2017-12-12T02:49:28.030Z,7.37
2017-12-12T02:50:28.298Z,7.3
2017-12-12T02:51:28.317Z,7.32
2017-12-12T02:52:28.301Z,7.42
2017-12-12T02:53:42.991Z,7.43
2017-12-12T02:54:28.373Z,7.27
2017-12-12T02:55:28.391Z,7.28
2017-12-12T02:56:28.415Z,7.25
2017-12-12T02:57:28.379Z,7.24
2017-12-12T02:58:28.432Z,7.35
2017-12-12T02:59:28.195Z,7.32
2017-12-12T03:00:28.481Z,7.34
2017-12-12T03:01:28.478Z,7.39
2017-12-12T03:02:28.223Z,7.37
2017-12-12T03:03:28.500Z,7.32
2017-12-12T03:04:28.552Z,7.32
2017-12-12T03:05:28.285Z,7.25
2017-12-12T03:06:43.215Z,7.35
2017-12-12T03:07:28.307Z,7.35
2017-12-12T03:08:28.600Z,7.32
2017-12-12T03:09:43.261Z,7.42
2017-12-12T03:11:28.663Z,7.34
2017-12-12T03:12:28.674Z,7.43
2017-12-12T03:13:43.354Z,7.32
2017-12-12T03:14:28.691Z,7.24
2017-12-12T03:15:28.700Z,7.34
2017-12-12T03:16:28.746Z,7.35
2017-12-12T03:17:28.743Z,7.37
2017-12-12T03:19:28.519Z,7.32
2017-12-12T03:20:28.818Z,7.34
2017-12-12T03:21:28.791Z,7.34
2017-12-12T03:22:28.835Z,7.37
2017-12-12T03:23:28.872Z,7.46
2017-12-12T03:24:28.871Z,7.45
2017-12-12T03:25:43.541Z,7.39
2017-12-12T03:26:28.882Z,7.42
2017-12-12T03:27:28.932Z,7.46
2017-12-12T03:28:28.924Z,7.4
2017-12-12T03:29:28.980Z,7.37
2017-12-12T03:30:28.722Z,7.37
2017-12-12T03:31:28.983Z,7.4
2017-12-12T03:32:43.677Z,7.4
2017-12-12T03:33:29.023Z,7.43
2017-12-12T03:34:29.020Z,7.37
2017-12-12T03:35:29.064Z,7.39
2017-12-12T03:38:29.091Z,7.43
2017-12-12T03:39:29.127Z,7.52
2017-12-12T03:40:43.821Z,7.52
2017-12-12T03:41:29.136Z,7.5
2017-12-12T03:42:28.909Z,7.48
2017-12-12T03:43:29.210Z,7.53
2017-12-12T03:44:29.199Z,7.52
2017-12-12T03:45:29.229Z,7.63
2017-12-12T03:46:29.259Z,7.61
2017-12-12T03:47:29.264Z,7.46
2017-12-12T03:48:29.272Z,7.49
2017-12-12T03:49:43.953Z,7.58
2017-12-12T03:51:29.353Z,7.61
2017-12-12T03:52:29.368Z,7.61
2017-12-12T03:53:44.040Z,7.57
2017-12-12T03:54:29.374Z,7.6
2017-12-12T03:55:29.400Z,7.53
2017-12-12T03:56:29.418Z,7.58
2017-12-12T03:57:29.435Z,7.64
2017-12-12T03:58:29.456Z,7.6
2017-12-12T04:00:29.479Z,7.63
2017-12-12T04:01:29.504Z,7.53
2017-12-12T04:02:29.533Z,7.63
2017-12-12T04:03:29.286Z,7.57
2017-12-12T04:04:29.581Z,7.57
2017-12-12T04:05:29.574Z,7.61
2017-12-12T04:06:29.587Z,7.6
2017-12-12T04:07:29.607Z,7.61
2017-12-12T04:08:44.275Z,7.69
2017-12-12T04:10:29.679Z,7.61
2017-12-12T04:11:29.654Z,7.64
2017-12-12T04:12:44.347Z,7.67
2017-12-12T04:15:29.755Z,7.57
2017-12-12T04:16:29.751Z,7.6
2017-12-12T04:17:29.803Z,7.63
2017-12-12T04:18:29.804Z,7.58
2017-12-12T04:19:29.547Z,7.72
2017-12-12T04:20:29.818Z,7.57
2017-12-12T04:21:29.591Z,7.58
2017-12-12T04:22:29.860Z,7.63
2017-12-12T04:23:29.905Z,7.69
2017-12-12T04:24:29.904Z,7.74
2017-12-12T04:25:29.916Z,7.63
2017-12-12T04:26:29.996Z,7.75
2017-12-12T04:27:29.956Z,7.74
2017-12-12T04:28:44.619Z,7.77
2017-12-12T04:29:30.008Z,7.79
2017-12-12T04:30:30.004Z,7.8
2017-12-12T04:31:30.021Z,7.86
2017-12-12T04:32:30.047Z,7.79
2017-12-12T04:33:30.077Z,7.64
2017-12-12T04:34:30.086Z,7.71
2017-12-12T04:35:30.104Z,7.82
2017-12-12T04:36:30.108Z,7.8
2017-12-12T04:37:30.130Z,7.79
2017-12-12T04:38:30.126Z,7.85
2017-12-12T04:39:30.148Z,7.8
2017-12-12T04:40:30.182Z,7.87
2017-12-12T04:41:29.944Z,7.86
2017-12-12T04:42:30.213Z,7.72
2017-12-12T04:43:30.240Z,7.83
2017-12-12T04:44:44.927Z,7.85
2017-12-12T04:45:30.012Z,7.82
2017-12-12T04:46:30.308Z,7.89
2017-12-12T04:47:30.303Z,7.87
2017-12-12T04:48:30.337Z,7.97
2017-12-12T04:49:30.320Z,8.01
2017-12-12T04:50:30.334Z,7.95
2017-12-12T04:51:30.367Z,7.97
2017-12-12T04:52:30.370Z,7.92
2017-12-12T04:53:30.411Z,8.02
2017-12-12T04:54:30.442Z,7.97
2017-12-12T04:55:30.414Z,7.87
2017-12-12T04:56:30.465Z,7.93
2017-12-12T04:57:30.512Z,8.02
2017-12-12T04:58:30.504Z,7.92
2017-12-12T05:00:45.183Z,7.9
2017-12-12T05:01:30.298Z,8
2017-12-12T05:02:30.568Z,7.85
2017-12-12T05:03:30.329Z,8.05
2017-12-12T05:04:30.618Z,8.02
2017-12-12T05:05:30.616Z,8.04
2017-12-12T05:07:30.651Z,8.11
2017-12-12T05:08:30.664Z,8.07
2017-12-12T05:09:30.424Z,8.08
2017-12-12T05:10:30.701Z,8
2017-12-12T05:11:30.715Z,8.07
2017-12-12T05:12:30.714Z,8.02
2017-12-12T05:13:30.753Z,8.07
2017-12-12T05:14:30.776Z,8.07
2017-12-12T05:15:45.455Z,7.98
2017-12-12T05:16:30.814Z,7.97
2017-12-12T05:17:30.821Z,7.95
2017-12-12T05:18:30.867Z,8
2017-12-12T05:19:30.854Z,8.02
2017-12-12T05:21:30.880Z,8.1
2017-12-12T05:22:30.916Z,8.08
2017-12-12T05:23:30.911Z,8.05
2017-12-12T05:24:45.624Z,8.1
2017-12-12T05:25:30.973Z,8.11
2017-12-12T05:26:30.985Z,8.25
2017-12-12T05:27:31.020Z,8.11
2017-12-12T05:29:45.722Z,8.07
2017-12-12T05:30:31.055Z,8.22
2017-12-12T05:32:31.088Z,8.07
2017-12-12T05:33:31.106Z,8.08
2017-12-12T05:34:30.865Z,8.05
2017-12-12T05:35:31.138Z,8.2
2017-12-12T05:36:31.162Z,8.2
2017-12-12T05:37:45.832Z,8.25
2017-12-12T05:38:31.175Z,8.2
2017-12-12T05:39:31.214Z,8.11
2017-12-12T05:40:31.221Z,8.15
2017-12-12T05:41:31.245Z,8.19
2017-12-12T05:42:31.282Z,8.18
2017-12-12T05:43:31.288Z,8.12
2017-12-12T05:44:31.309Z,8.19
2017-12-12T05:45:31.318Z,8.3
2017-12-12T05:46:31.325Z,8.22
2017-12-12T05:47:46.003Z,8.29
2017-12-12T05:48:31.380Z,8.26
2017-12-12T05:49:31.389Z,8.29
2017-12-12T05:50:31.404Z,8.25
2017-12-12T05:51:31.450Z,8.28
2017-12-12T05:52:31.196Z,8.29
2017-12-12T05:53:31.466Z,8.38
2017-12-12T05:54:31.600Z,8.2
2017-12-12T05:55:31.516Z,8.36
2017-12-12T05:56:31.279Z,8.38
2017-12-12T05:57:31.267Z,8.4
2017-12-12T05:58:31.548Z,8.36
2017-12-12T05:59:31.312Z,8.36
2017-12-12T06:00:31.587Z,8.41
2017-12-12T06:01:31.343Z,8.28
2017-12-12T06:02:31.615Z,8.36
2017-12-12T06:03:46.320Z,8.4
2017-12-12T06:04:31.662Z,8.36
2017-12-12T06:05:31.644Z,8.38
2017-12-12T06:06:31.689Z,8.48
2017-12-12T06:07:31.699Z,8.43
2017-12-12T06:08:31.703Z,8.41
2017-12-12T06:09:31.512Z,8.34
2017-12-12T06:10:31.753Z,8.36
2017-12-12T06:11:31.793Z,8.33
2017-12-12T06:12:46.468Z,8.41
2017-12-12T06:13:31.806Z,8.44
2017-12-12T06:15:31.855Z,8.43
2017-12-12T06:16:31.948Z,8.41
2017-12-12T06:17:31.896Z,8.41
2017-12-12T06:18:31.899Z,8.25
2017-12-12T06:19:46.570Z,8.28
2017-12-12T06:20:31.914Z,8.4
2017-12-12T06:21:31.953Z,8.38
2017-12-12T06:22:31.707Z,8.4
2017-12-12T06:23:31.977Z,8.37
2017-12-12T06:24:32.003Z,8.41
2017-12-12T06:25:32.029Z,8.43
2017-12-12T06:26:32.058Z,8.41
2017-12-12T06:27:32.075Z,8.34
2017-12-12T06:28:31.802Z,8.4
2017-12-12T06:29:32.101Z,8.37
2017-12-12T06:30:32.165Z,8.43
2017-12-12T06:31:32.121Z,8.4
2017-12-12T06:32:32.172Z,8.4
2017-12-12T06:33:32.178Z,8.41
2017-12-12T06:34:31.946Z,8.45
2017-12-12T06:35:46.859Z,8.43
2017-12-12T06:36:32.232Z,8.41
2017-12-12T06:37:32.290Z,8.43
2017-12-12T06:38:32.229Z,8.37
2017-12-12T06:39:32.285Z,8.43
2017-12-12T06:40:32.293Z,8.43
2017-12-12T06:41:32.316Z,8.38
2017-12-12T06:42:32.340Z,8.29
2017-12-12T06:43:32.352Z,8.43
2017-12-12T06:44:47.024Z,8.47
2017-12-12T06:45:32.412Z,8.44
2017-12-12T06:46:32.392Z,8.45
2017-12-12T06:47:32.435Z,8.45
2017-12-12T06:48:32.430Z,8.45
2017-12-12T06:50:47.145Z,8.37
2017-12-12T06:51:32.214Z,8.41
2017-12-12T06:53:32.519Z,8.44
2017-12-12T06:54:32.536Z,8.4
2017-12-12T06:55:32.559Z,8.4
2017-12-12T06:56:32.584Z,8.43
2017-12-12T06:57:32.580Z,8.4
2017-12-12T06:58:32.624Z,8.37
2017-12-12T06:59:32.624Z,8.4
2017-12-12T07:00:32.645Z,8.43
2017-12-12T07:01:32.423Z,8.44
2017-12-12T07:02:32.696Z,8.44
2017-12-12T07:03:32.756Z,8.37
2017-12-12T07:04:32.211Z,8.36
2017-12-12T07:05:32.488Z,8.4
2017-12-12T07:06:32.758Z,8.4
2017-12-12T07:07:32.777Z,8.44
2017-12-12T07:08:32.523Z,8.36
2017-12-12T07:09:32.567Z,8.36
2017-12-12T07:10:32.824Z,8.36
2017-12-12T07:11:47.519Z,8.33
2017-12-12T07:12:32.839Z,8.37
2017-12-12T07:13:32.901Z,8.38
2017-12-12T07:14:32.905Z,8.3
2017-12-12T07:15:32.932Z,8.22
2017-12-12T07:17:32.943Z,8.29
2017-12-12T07:18:32.962Z,8.22
2017-12-12T07:19:32.737Z,8.25
2017-12-12T07:20:32.996Z,8.15
2017-12-12T07:21:33.024Z,8.29
2017-12-12T07:22:47.713Z,8.18
2017-12-12T07:23:33.059Z,8.2
2017-12-12T07:24:33.088Z,8.2
2017-12-12T07:25:33.062Z,8.22
2017-12-12T07:26:33.133Z,8.22
2017-12-12T07:27:33.106Z,8.15
2017-12-12T07:28:33.142Z,8.1
2017-12-12T07:30:33.296Z,8.16
2017-12-12T07:31:47.920Z,8.2
2017-12-12T07:32:33.208Z,8.2
2017-12-12T07:33:47.900Z,8.1
2017-12-12T07:34:33.305Z,8.15
2017-12-12T07:35:47.918Z,8.08
2017-12-12T07:36:33.028Z,8.08
2017-12-12T07:37:47.956Z,8.07
2017-12-12T07:38:47.973Z,8.25
2017-12-12T07:39:33.345Z,8.19
2017-12-12T07:40:48.027Z,8.23
2017-12-12T07:41:33.369Z,8.19
2017-12-12T07:42:33.408Z,8.08
2017-12-12T07:43:33.143Z,8.07
2017-12-12T07:44:33.405Z,8.07
2017-12-12T07:45:33.187Z,8.16
2017-12-12T07:46:33.475Z,8.08
2017-12-12T07:47:33.696Z,8.19
2017-12-12T07:48:33.484Z,8.18
2017-12-12T07:49:33.516Z,8.12
2017-12-12T07:50:33.528Z,8.25
2017-12-12T07:51:33.295Z,8.19
2017-12-12T07:53:33.584Z,8.07
2017-12-12T07:54:48.359Z,8.07
2017-12-12T07:55:33.403Z,8.01
2017-12-12T07:56:33.694Z,8.01
2017-12-12T07:57:48.331Z,8.11
2017-12-12T07:58:33.663Z,8.04
2017-12-12T07:59:33.678Z,8.08
2017-12-12T08:00:48.363Z,8.04
2017-12-12T08:01:33.716Z,8.11
2017-12-12T08:02:33.735Z,8.02
2017-12-12T08:03:33.767Z,8.02
2017-12-12T08:05:33.817Z,8.01
2017-12-12T08:06:33.805Z,8.1
2017-12-12T08:07:33.848Z,8.08
2017-12-12T08:08:33.833Z,8.11
2017-12-12T08:09:33.355Z,8.05
2017-12-12T08:10:48.554Z,8.11
2017-12-12T08:11:33.879Z,8.08
2017-12-12T08:12:33.922Z,7.98
2017-12-12T08:13:33.941Z,8.07
2017-12-12T08:14:34.001Z,8.02
2017-12-12T08:15:33.968Z,8.04
2017-12-12T08:16:34.003Z,8.07
2017-12-12T08:17:34.067Z,8.1
2017-12-12T08:18:34.021Z,8.04
2017-12-12T08:19:34.037Z,8.08
2017-12-12T08:20:34.059Z,8.05
2017-12-12T08:21:34.190Z,8.08
2017-12-12T08:22:48.507Z,8.04
2017-12-12T08:23:34.143Z,8
2017-12-12T08:24:34.144Z,8.07
2017-12-12T08:25:48.807Z,8.04
2017-12-12T08:27:34.210Z,8.07
2017-12-12T08:28:34.221Z,8.1
2017-12-12T08:29:34.233Z,8.01
2017-12-12T08:30:34.214Z,8.04
2017-12-12T08:31:48.911Z,7.82
2017-12-12T08:32:34.285Z,7.82
2017-12-12T08:33:34.297Z,7.82
2017-12-12T08:34:34.303Z,7.8
2017-12-12T08:35:34.371Z,7.85
2017-12-12T08:36:38.215Z,7.82
2017-12-12T08:37:34.569Z,7.93
2017-12-12T08:38:35.234Z,7.77
2017-12-12T08:39:34.399Z,7.61
2017-12-12T08:40:34.409Z,7.61
2017-12-12T08:41:34.467Z,7.58
2017-12-12T08:42:34.185Z,7.5
2017-12-12T08:43:49.142Z,7.45
2017-12-12T08:44:49.160Z,7.34
2017-12-12T08:45:34.496Z,7.28
2017-12-12T08:46:34.514Z,7.13
2017-12-12T08:47:34.538Z,7.07
2017-12-12T08:48:34.547Z,6.95
2017-12-12T08:49:34.565Z,7.06
2017-12-12T08:50:34.604Z,7.12
2017-12-12T08:51:34.600Z,7.03
2017-12-12T08:52:34.604Z,6.95
2017-12-12T08:53:34.609Z,6.81
2017-12-12T08:54:34.640Z,6.76
2017-12-12T08:55:34.672Z,6.79
2017-12-12T08:57:49.367Z,6.62
2017-12-12T08:58:34.705Z,6.62
2017-12-12T08:59:34.489Z,6.58
2017-12-12T09:00:34.740Z,6.52
2017-12-12T09:01:34.770Z,6.51
2017-12-12T09:02:34.817Z,6.56
2017-12-12T09:03:34.879Z,6.54
2017-12-12T09:04:34.833Z,6.61
2017-12-12T09:05:34.839Z,6.49
2017-12-12T09:06:34.876Z,6.46
2017-12-12T09:07:34.899Z,6.33
2017-12-12T09:08:34.897Z,6.21
2017-12-12T09:09:49.598Z,6.25
2017-12-12T09:10:34.924Z,6.22
2017-12-12T09:11:34.942Z,6.3
2017-12-12T09:12:34.983Z,6.3
2017-12-12T09:13:49.635Z,6.3
2017-12-12T09:14:35.008Z,6.33
2017-12-12T09:15:34.746Z,6.28
2017-12-12T09:16:35.125Z,6.18
2017-12-12T09:17:35.072Z,6.09
2017-12-12T09:18:35.074Z,6.04
2017-12-12T09:19:35.099Z,6.08
2017-12-12T09:20:35.091Z,6.11
2017-12-12T09:21:35.113Z,6.03
2017-12-12T09:22:35.135Z,6.03
2017-12-12T09:23:35.152Z,6.06
2017-12-12T09:24:35.035Z,5.99
2017-12-12T09:25:35.163Z,5.97
2017-12-12T09:26:34.923Z,5.91
2017-12-12T09:27:49.865Z,5.82
2017-12-12T09:28:35.265Z,5.79
2017-12-12T09:29:49.926Z,5.79
2017-12-12T09:30:35.241Z,5.86
2017-12-12T09:31:35.279Z,5.93
2017-12-12T09:32:35.296Z,5.99
2017-12-12T09:33:35.338Z,5.9
2017-12-12T09:34:35.329Z,5.83
2017-12-12T09:36:35.128Z,5.86
2017-12-12T09:37:35.120Z,5.75
2017-12-12T09:38:35.176Z,5.81
2017-12-12T09:39:35.176Z,5.78
2017-12-12T09:40:35.477Z,5.81
2017-12-12T09:41:35.448Z,5.76
2017-12-12T09:42:35.458Z,5.83
2017-12-12T09:43:35.478Z,5.86
2017-12-12T09:44:35.494Z,5.78
2017-12-12T09:45:50.167Z,5.72
2017-12-12T09:46:35.253Z,5.68
2017-12-12T09:47:35.553Z,5.79
2017-12-12T09:49:35.570Z,5.78
2017-12-12T09:50:35.588Z,5.79
2017-12-12T09:51:35.630Z,5.86
2017-12-12T09:52:35.621Z,5.75
2017-12-12T09:53:35.644Z,5.83
2017-12-12T09:54:35.680Z,5.81
2017-12-12T09:55:35.680Z,5.85
2017-12-12T09:56:35.671Z,5.79
2017-12-12T09:57:35.471Z,5.93
2017-12-12T09:58:35.725Z,5.94
2017-12-12T09:59:35.746Z,5.9
2017-12-12T10:00:50.416Z,5.91
2017-12-12T10:01:35.772Z,5.93
2017-12-12T10:02:35.527Z,5.83
2017-12-12T10:03:35.837Z,5.79
2017-12-12T10:04:35.592Z,5.89
2017-12-12T10:06:35.874Z,5.79
2017-12-12T10:07:35.988Z,5.67
2017-12-12T10:08:35.888Z,5.72
2017-12-12T10:09:35.909Z,5.61
2017-12-12T10:10:35.910Z,5.71
2017-12-12T10:11:35.935Z,5.61
2017-12-12T10:12:35.975Z,5.61
2017-12-12T10:13:50.382Z,5.61
2017-12-12T10:14:35.970Z,5.81
2017-12-12T10:15:35.749Z,5.76
2017-12-12T10:16:36.031Z,5.78
2017-12-12T10:17:36.007Z,5.76
2017-12-12T10:18:36.080Z,5.53
2017-12-12T10:19:36.082Z,5.61
2017-12-12T10:20:35.813Z,5.42
2017-12-12T10:22:36.123Z,5.4
2017-12-12T10:23:36.144Z,5.45
2017-12-12T10:24:36.168Z,5.46
2017-12-12T10:25:36.157Z,5.49
2017-12-12T10:26:36.202Z,5.4
2017-12-12T10:27:36.202Z,5.4
2017-12-12T10:28:36.215Z,5.49
2017-12-12T10:29:36.248Z,5.54
2017-12-12T10:31:35.989Z,5.48
2017-12-12T10:32:50.939Z,5.48
2017-12-12T10:33:36.264Z,5.45
2017-12-12T10:34:36.293Z,5.4
2017-12-12T10:36:51.003Z,5.51
2017-12-12T10:37:36.354Z,5.56
2017-12-12T10:38:36.389Z,5.64
2017-12-12T10:39:36.480Z,5.54
2017-12-12T10:40:36.403Z,5.51
2017-12-12T10:41:36.447Z,5.48
2017-12-12T10:42:36.462Z,5.49
2017-12-12T10:43:36.532Z,5.49
2017-12-12T10:44:36.465Z,5.42
2017-12-12T10:45:36.231Z,5.53
2017-12-12T10:46:36.514Z,5.45
2017-12-12T10:47:36.526Z,5.43
2017-12-12T10:49:36.549Z,5.45
2017-12-12T10:50:36.310Z,5.61
2017-12-12T10:51:36.326Z,5.48
2017-12-12T10:52:36.599Z,5.51
2017-12-12T10:53:36.614Z,5.45
2017-12-12T10:54:36.625Z,5.49
2017-12-12T10:55:36.418Z,5.51
2017-12-12T10:56:36.637Z,5.58
2017-12-12T10:57:36.443Z,5.46
2017-12-12T10:58:36.701Z,5.46
2017-12-12T10:59:36.698Z,5.39
2017-12-12T11:00:36.494Z,5.45
2017-12-12T11:01:36.719Z,5.4
2017-12-12T11:02:36.497Z,5.48
2017-12-12T11:03:36.762Z,5.45
2017-12-12T11:04:51.461Z,5.49
2017-12-12T11:05:36.555Z,5.57
2017-12-12T11:06:36.575Z,5.49
2017-12-12T11:07:36.834Z,5.45
2017-12-12T11:08:36.599Z,5.42
2017-12-12T11:09:36.869Z,5.43
2017-12-12T11:10:36.891Z,5.43
2017-12-12T11:11:36.888Z,5.51
2017-12-12T11:12:36.942Z,5.43
2017-12-12T11:14:36.949Z,5.51
2017-12-12T11:15:36.718Z,5.51
2017-12-12T11:16:36.979Z,5.56
2017-12-12T11:17:36.985Z,5.51
2017-12-12T11:18:36.764Z,5.49
2017-12-12T11:19:37.017Z,5.46
2017-12-12T11:20:51.727Z,5.53
2017-12-12T11:21:37.066Z,5.4
2017-12-12T11:22:37.075Z,5.42
2017-12-12T11:25:36.865Z,5.51
2017-12-12T11:26:37.161Z,5.53
2017-12-12T11:27:37.135Z,5.43
2017-12-12T11:28:37.160Z,5.38
2017-12-12T11:29:36.944Z,5.38
2017-12-12T11:30:36.953Z,5.43
2017-12-12T11:31:37.230Z,5.39
2017-12-12T11:32:37.257Z,5.42
2017-12-12T11:34:36.998Z,5.42
2017-12-12T11:35:51.966Z,5.38
2017-12-12T11:36:37.313Z,5.45
2017-12-12T11:37:37.324Z,5.42
2017-12-12T11:38:37.318Z,5.35
2017-12-12T11:39:37.365Z,5.4
2017-12-12T11:40:37.135Z,5.4
2017-12-12T11:41:37.388Z,5.39
2017-12-12T11:42:37.411Z,5.48
2017-12-12T11:43:37.418Z,5.53
2017-12-12T11:44:37.440Z,5.46
2017-12-12T11:45:37.427Z,5.4
2017-12-12T11:46:37.491Z,5.48
2017-12-12T11:47:37.457Z,5.43
2017-12-12T11:48:37.519Z,5.42
2017-12-12T11:49:37.530Z,5.4
2017-12-12T11:50:37.500Z,5.4
2017-12-12T11:51:37.542Z,5.39
2017-12-12T11:52:37.550Z,5.45
2017-12-12T11:53:37.576Z,5.42
2017-12-12T11:54:37.687Z,5.42
2017-12-12T11:56:37.620Z,5.48
2017-12-12T11:57:37.376Z,5.4
2017-12-12T11:58:37.634Z,5.38
2017-12-12T11:59:37.664Z,5.42
2017-12-12T12:00:37.681Z,5.45
2017-12-12T12:01:37.705Z,5.39
2017-12-12T12:02:37.732Z,5.43
2017-12-12T12:03:37.746Z,5.53
2017-12-12T12:04:37.504Z,5.49
2017-12-12T12:05:37.749Z,5.48
2017-12-12T12:06:37.797Z,5.49
2017-12-12T12:07:52.465Z,5.51
2017-12-12T12:08:37.828Z,5.54
2017-12-12T12:09:37.833Z,5.54
2017-12-12T12:10:52.519Z,5.61
2017-12-12T12:11:37.852Z,5.49
2017-12-12T12:12:37.897Z,5.48
2017-12-12T12:13:37.874Z,5.48
2017-12-12T12:14:37.887Z,5.42
2017-12-12T12:15:52.600Z,5.42
2017-12-12T12:16:37.933Z,5.45
2017-12-12T12:17:37.951Z,5.45
2017-12-12T12:18:37.948Z,5.45
2017-12-12T12:19:52.639Z,5.46
2017-12-12T12:20:38.001Z,5.49
2017-12-12T12:21:38.007Z,5.48
2017-12-12T12:22:38.051Z,5.48
2017-12-12T12:23:52.715Z,5.53
2017-12-12T12:24:38.075Z,5.53
2017-12-12T12:25:38.065Z,5.53
2017-12-12T12:26:38.082Z,5.43
2017-12-12T12:27:37.872Z,5.57
2017-12-12T12:28:38.139Z,5.48
2017-12-12T12:29:37.902Z,5.43
2017-12-12T12:30:38.145Z,5.54
2017-12-12T12:31:37.905Z,5.53
2017-12-12T12:32:38.173Z,5.57
2017-12-12T12:33:38.208Z,5.6
2017-12-12T12:34:38.224Z,5.72
2017-12-12T12:35:38.238Z,5.81
2017-12-12T12:36:37.743Z,5.65
2017-12-12T12:37:38.290Z,5.68
2017-12-12T12:38:38.304Z,5.64
2017-12-12T12:39:52.956Z,5.72
2017-12-12T12:40:38.320Z,5.81
2017-12-12T12:42:38.330Z,5.79
2017-12-12T12:43:38.374Z,5.89
2017-12-12T12:44:38.126Z,5.86
2017-12-12T12:45:38.158Z,5.86
2017-12-12T12:46:38.397Z,5.82
2017-12-12T12:47:38.454Z,5.9
2017-12-12T12:48:38.473Z,5.83
2017-12-12T12:50:38.209Z,5.83
2017-12-12T12:51:38.495Z,5.82
2017-12-12T12:52:38.512Z,5.78
2017-12-12T12:53:38.544Z,5.81
2017-12-12T12:54:38.543Z,5.86
2017-12-12T12:55:53.216Z,5.9
2017-12-12T12:56:38.587Z,5.83
2017-12-12T12:57:38.576Z,5.81
2017-12-12T12:58:53.272Z,5.81
2017-12-12T13:00:38.662Z,5.85
2017-12-12T13:01:38.655Z,5.85
2017-12-12T13:02:38.684Z,5.75
2017-12-12T13:03:38.686Z,5.85
2017-12-12T13:04:38.701Z,5.81
2017-12-12T13:05:38.700Z,5.81
2017-12-12T13:06:38.740Z,5.86
2017-12-12T13:07:38.753Z,5.76
2017-12-12T13:08:38.776Z,5.78
2017-12-12T13:09:38.780Z,5.89
2017-12-12T13:10:53.459Z,5.81
2017-12-12T13:11:38.829Z,5.78
2017-12-12T13:12:38.850Z,5.83
2017-12-12T13:13:38.878Z,5.71
2017-12-12T13:15:38.861Z,5.83
2017-12-12T13:16:38.916Z,5.68
2017-12-12T13:17:38.892Z,5.79
2017-12-12T13:18:38.907Z,5.74
2017-12-12T13:19:38.967Z,5.74
2017-12-12T13:20:38.938Z,5.85
2017-12-12T13:21:38.957Z,5.83
2017-12-12T13:22:38.721Z,5.71
2017-12-12T13:23:39.029Z,5.75
2017-12-12T13:25:39.034Z,5.79
2017-12-12T13:26:39.088Z,5.81
2017-12-12T13:27:39.095Z,5.83
2017-12-12T13:28:39.068Z,5.83
2017-12-12T13:29:39.102Z,5.82
2017-12-12T13:30:38.862Z,5.81
2017-12-12T13:31:39.139Z,5.79
2017-12-12T13:32:39.150Z,5.85
2017-12-12T13:33:39.146Z,5.85
2017-12-12T13:36:38.945Z,5.68
2017-12-12T13:37:38.972Z,5.78
2017-12-12T13:38:39.271Z,5.74
2017-12-12T13:39:39.269Z,5.74
2017-12-12T13:40:39.265Z,5.68
2017-12-12T13:41:39.300Z,5.72
2017-12-12T13:42:53.995Z,5.65
2017-12-12T13:43:39.343Z,5.71
2017-12-12T13:44:39.348Z,5.68
2017-12-12T13:45:39.332Z,5.65
2017-12-12T13:46:39.356Z,5.64
2017-12-12T13:47:39.377Z,5.81
2017-12-12T13:48:39.385Z,5.71
2017-12-12T13:49:39.172Z,5.72
2017-12-12T13:50:39.423Z,5.74
2017-12-12T13:51:39.463Z,5.72
2017-12-12T13:52:39.471Z,5.72
2017-12-12T13:53:39.486Z,5.68
2017-12-12T13:54:39.505Z,5.79
2017-12-12T13:55:39.529Z,5.63
2017-12-12T13:56:39.551Z,5.72
2017-12-12T13:57:39.557Z,5.78
2017-12-12T13:58:54.250Z,5.74
2017-12-12T13:59:39.605Z,5.72
2017-12-12T14:00:39.580Z,5.72
2017-12-12T14:01:39.619Z,5.68
2017-12-12T14:02:39.654Z,5.68
2017-12-12T14:03:39.661Z,5.76
2017-12-12T14:04:39.637Z,5.68
2017-12-12T14:05:39.694Z,5.72
2017-12-12T14:06:39.688Z,5.74
2017-12-12T14:07:39.687Z,5.72
2017-12-12T14:08:39.751Z,5.71
2017-12-12T14:09:39.845Z,5.72
2017-12-12T14:10:39.787Z,5.64
2017-12-12T14:11:54.191Z,5.65
2017-12-12T14:12:39.795Z,5.65
2017-12-12T14:13:39.789Z,5.65
2017-12-12T14:14:54.475Z,5.65
2017-12-12T14:15:39.809Z,5.65
2017-12-12T14:16:54.511Z,5.61
2017-12-12T14:17:39.871Z,5.61